Weather History for Glendive, MT

Change the Weather History Date:

Thursday, November 15, 2012

  Actual Average Record
Temperature  
Mean Temperature 24 °F -  
Max Temperature 35 °F 38 °F 64 °F (2001)
Min Temperature 12 °F 19 °F -7 °F (2014)
Degree Days  
Heating Degree Days 42    
Moisture  
Dew Point 21 °F    
Average Humidity 83    
Maximum Humidity 100    
Minimum Humidity 70    
Precipitation  
Precipitation 0.00 in - - ()
Sea Level Pressure  
Sea Level Pressure 30.23 in    
Wind  
Wind Speed 7 mph (SSW)    
Max Wind Speed 13 mph    
Max Gust Speed -    
Visibility 10 miles    
Events      
Averages and records for this station are not official NWS values.
T = Trace of Precipitation, MM = Missing Value Source: NWS Daily Summary

Daily Weather History Graph

Daily Weather History Graph

Search for Another Location

Airport:

Trip Planner

Search our weather history database for the weather conditions in past years. The results will help you decide how hot, cold, wet, or windy it might be!

Date:

Astronomy

Nov. 15, 2012 Rise Set
Actual Time 7:03 AM MST 4:23 PM MST
Civil Twilight 6:30 AM MST 4:56 PM MST
Nautical Twilight 5:53 AM MST 5:33 PM MST
Astronomical Twilight 5:17 AM MST 6:09 PM MST
Moon 9:06 AM MST (11/15) 6:13 PM MST (11/15)
Length of Visible Light 10h 26m
Length of Day
9h 19m
Waxing Crescent, 5% of the Moon is Illuminated
Nov 15
Waxing Crescent
Nov 20
First Quarter
Nov 28
Full
Dec 6
Last Quarter
Dec 13
New

Hourly Weather History & Observations

Time (MST) Temp. Windchill Dew Point Humidity Pressure Visibility Wind Dir Wind Speed Gust Speed Precip Events Conditions
12:15 AM 24.8 °F 15.3 °F 21.2 °F 86% 30.21 in 10.0 mi WNW 9.2 mph - N/A   Clear
12:35 AM 21.2 °F 10.1 °F 17.6 °F 86% 30.22 in 10.0 mi West 10.4 mph - N/A   Clear
12:55 AM 19.4 °F 7.9 °F 15.8 °F 86% 30.22 in 10.0 mi WNW 10.4 mph - N/A   Clear
1:15 AM 19.4 °F 6.6 °F 14.0 °F 80% 30.23 in 10.0 mi WNW 12.7 mph - N/A   Clear
1:35 AM 23.0 °F 11.7 °F 17.6 °F 80% 30.23 in 10.0 mi NW 11.5 mph - N/A   Clear
1:55 AM 21.2 °F 10.1 °F 17.6 °F 86% 30.24 in 10.0 mi NNW 10.4 mph - N/A   Clear
2:15 AM 19.4 °F 12.8 °F 17.6 °F 93% 30.25 in 10.0 mi NW 4.6 mph - N/A   Clear
2:35 AM 21.2 °F 14.9 °F 17.6 °F 86% 30.26 in 10.0 mi SW 4.6 mph - N/A   Clear
2:55 AM 21.2 °F 16.4 °F 17.6 °F 86% 30.26 in 10.0 mi SSE 3.5 mph - N/A   Clear
3:15 AM 23.0 °F 17.0 °F 17.6 °F 80% 30.27 in 10.0 mi SSE 4.6 mph - N/A   Clear
3:35 AM 19.4 °F 14.3 °F 15.8 °F 86% 30.27 in 10.0 mi South 3.5 mph - N/A   Clear
3:55 AM 15.8 °F - 10.4 °F 79% 30.27 in 10.0 mi Calm Calm - N/A   Clear
4:35 AM 12.2 °F 1.7 °F 10.4 °F 92% 30.27 in 10.0 mi West 6.9 mph - N/A   Clear
4:55 AM 14.0 °F 6.5 °F 12.2 °F 93% 30.28 in 10.0 mi West 4.6 mph - N/A   Clear
5:15 AM 12.2 °F 6.1 °F 6.8 °F 79% 30.29 in 10.0 mi WSW 3.5 mph - N/A   Clear
5:35 AM 12.2 °F 4.3 °F 6.8 °F 79% 30.28 in 10.0 mi South 4.6 mph - N/A   Clear
6:15 AM 17.6 °F 9.3 °F 10.4 °F 73% 30.29 in 10.0 mi South 5.8 mph - N/A   Clear
6:35 AM 17.6 °F 12.3 °F 12.2 °F 79% 30.29 in 10.0 mi South 3.5 mph - N/A   Clear
6:55 AM 15.8 °F 8.6 °F 10.4 °F 79% 30.30 in 10.0 mi SSW 4.6 mph - N/A   Clear
7:15 AM 12.2 °F -0.2 °F 8.6 °F 85% 30.30 in 10.0 mi SSW 9.2 mph - N/A   Clear
7:35 AM 15.8 °F 5.1 °F 14.0 °F 93% 30.30 in 10.0 mi SSW 8.1 mph - N/A   Clear
7:55 AM 17.6 °F 6.4 °F 15.8 °F 93% 30.31 in 10.0 mi SSW 9.2 mph - N/A   Clear
8:15 AM 17.6 °F 8.2 °F 15.8 °F 93% 30.31 in 10.0 mi South 6.9 mph - N/A   Clear
8:35 AM 19.4 °F 10.4 °F 17.6 °F 93% 30.31 in 10.0 mi South 6.9 mph - N/A   Clear
8:55 AM 21.2 °F 11.7 °F 19.4 °F 93% 30.31 in 10.0 mi South 8.1 mph - N/A   Clear
9:15 AM 23.0 °F 13.9 °F 19.4 °F 86% 30.32 in 10.0 mi South 8.1 mph - N/A   Clear
9:35 AM 23.0 °F 11.7 °F 21.2 °F 93% 30.32 in 10.0 mi South 11.5 mph - N/A   Clear
9:55 AM 24.8 °F 14.6 °F 21.2 °F 86% 30.32 in 10.0 mi South 10.4 mph - N/A   Clear
10:15 AM 26.6 °F 16.8 °F 23.0 °F 86% 30.32 in 10.0 mi South 10.4 mph - N/A   Clear
10:55 AM 28.4 °F 19.7 °F 23.0 °F 80% 30.31 in 10.0 mi South 9.2 mph - N/A   Clear
11:15 AM 28.4 °F 19.1 °F 23.0 °F 80% 30.30 in 10.0 mi SSW 10.4 mph - N/A   Clear
11:35 AM 30.2 °F 20.8 °F 24.8 °F 80% 30.30 in 10.0 mi SSW 11.5 mph - N/A   Clear
11:55 AM 30.2 °F 21.3 °F 24.8 °F 80% 30.28 in 10.0 mi South 10.4 mph - N/A   Clear
12:15 PM 32.0 °F 24.2 °F 26.6 °F 80% 30.27 in 10.0 mi SSW 9.2 mph - N/A   Clear
12:35 PM 33.8 °F 27.7 °F 26.6 °F 75% 30.27 in 10.0 mi SSW 6.9 mph - N/A   Clear
12:55 PM 33.8 °F 27.7 °F 26.6 °F 75% 30.26 in 10.0 mi SSW 6.9 mph - N/A   Clear
1:15 PM 35.6 °F 31.7 °F 26.6 °F 70% 30.26 in 10.0 mi SSW 4.6 mph - N/A   Clear
1:35 PM 33.8 °F 29.6 °F 26.6 °F 75% 30.25 in 10.0 mi South 4.6 mph - N/A   Clear
1:55 PM 35.6 °F 32.8 °F 28.4 °F 75% 30.24 in 10.0 mi South 3.5 mph - N/A   Clear
2:35 PM 35.6 °F 31.7 °F 28.4 °F 75% 30.23 in 10.0 mi SSW 4.6 mph - N/A   Clear
2:55 PM 35.6 °F 29.9 °F 28.4 °F 75% 30.23 in 10.0 mi SSW 6.9 mph - N/A   Clear
3:15 PM 35.6 °F 30.7 °F 28.4 °F 75% 30.22 in 10.0 mi SSW 5.8 mph - N/A   Clear
3:35 PM 35.6 °F 31.7 °F 28.4 °F 75% 30.22 in 10.0 mi SSW 4.6 mph - N/A   Clear
3:55 PM 35.6 °F 30.7 °F 26.6 °F 70% 30.21 in 10.0 mi SSW 5.8 mph - N/A   Clear
4:15 PM 33.8 °F 29.6 °F 26.6 °F 75% 30.21 in 10.0 mi SW 4.6 mph - N/A   Clear
4:35 PM 33.8 °F 30.8 °F 26.6 °F 75% 30.20 in 10.0 mi SW 3.5 mph - N/A   Clear
4:55 PM 32.0 °F - 26.6 °F 80% 30.19 in 10.0 mi Calm Calm - N/A   Clear
5:15 PM 30.2 °F - 26.6 °F 86% 30.19 in 10.0 mi Calm Calm - N/A   Clear
5:55 PM 32.0 °F - 26.6 °F 80% 30.18 in 10.0 mi Calm Calm - N/A   Clear
6:15 PM 28.4 °F 24.6 °F 26.6 °F 93% 30.18 in 10.0 mi South 3.5 mph - N/A   Clear
6:35 PM 30.2 °F - 28.4 °F 93% 30.17 in 10.0 mi Calm Calm - N/A   Clear
6:55 PM 28.4 °F - 26.6 °F 93% 30.17 in 10.0 mi Calm Calm - N/A   Clear
7:35 PM 28.4 °F 23.3 °F 28.4 °F 100% 30.17 in 10.0 mi SE 4.6 mph - N/A   Clear
7:55 PM 26.6 °F - 21.2 °F 80% 30.17 in 10.0 mi Calm Calm - N/A   Clear
8:15 PM 28.4 °F - 24.8 °F 86% 30.17 in 10.0 mi Calm Calm - N/A   Clear
8:35 PM 28.4 °F 24.6 °F 26.6 °F 93% 30.17 in 10.0 mi South 3.5 mph - N/A   Clear
8:55 PM 26.6 °F 19.1 °F 23.0 °F 86% 30.16 in 10.0 mi South 6.9 mph - N/A   Clear
9:15 PM 26.6 °F 17.5 °F 24.8 °F 93% 30.16 in 10.0 mi South 9.2 mph - N/A   Clear
9:35 PM 28.4 °F 19.1 °F 24.8 °F 86% 30.15 in 10.0 mi South 10.4 mph - N/A   Clear
9:55 PM 28.4 °F 18.5 °F 23.0 °F 80% 30.14 in 10.0 mi South 11.5 mph - N/A   Clear
10:15 PM 28.4 °F 19.1 °F 24.8 °F 86% 30.13 in 10.0 mi South 10.4 mph - N/A   Clear
10:35 PM 28.4 °F 19.1 °F 24.8 °F 86% 30.12 in 10.0 mi South 10.4 mph - N/A   Clear
10:55 PM 28.4 °F 18.5 °F 23.0 °F 80% 30.11 in 10.0 mi South 11.5 mph - N/A   Clear
11:35 PM 28.4 °F 20.4 °F 24.8 °F 86% 30.10 in 10.0 mi South 8.1 mph - N/A   Clear
11:55 PM 26.6 °F 21.2 °F 21.2 °F 80% 30.09 in 10.0 mi ESE 4.6 mph - N/A   Clear